LFPM 061630Z AUTO 04005KT 350V080 CAVOK 06/M00 Q1037